createdAt,value
2018-09-10T00:00:14.384Z,84.00
2018-09-10T00:01:14.369Z,83.75
2018-09-10T00:02:14.350Z,84.00
2018-09-10T00:03:14.333Z,84.81
2018-09-10T00:04:14.318Z,84.71
2018-09-10T00:05:14.302Z,84.95
2018-09-10T00:06:14.284Z,84.58
2018-09-10T00:07:14.268Z,84.67
2018-09-10T00:08:14.251Z,84.04
2018-09-10T00:09:14.237Z,83.85
2018-09-10T00:10:14.219Z,84.00
2018-09-10T00:11:14.201Z,84.09
2018-09-10T00:12:14.189Z,84.61
2018-09-10T00:13:14.177Z,84.19
2018-09-10T00:14:14.152Z,84.09
2018-09-10T00:15:14.137Z,84.48
2018-09-10T00:16:14.121Z,83.91
2018-09-10T00:17:14.101Z,84.19
2018-09-10T00:18:14.110Z,84.00
2018-09-10T00:19:14.071Z,84.00
2018-09-10T00:20:14.051Z,84.52
2018-09-10T00:21:14.036Z,84.58
2018-09-10T00:22:14.019Z,84.48
2018-09-10T00:23:14.003Z,83.52
2018-09-10T00:24:13.985Z,84.58
2018-09-10T00:25:13.969Z,84.38
2018-09-10T00:26:13.952Z,84.58
2018-09-10T00:27:13.935Z,85.15
2018-09-10T00:28:13.920Z,85.92
2018-09-10T00:29:13.902Z,85.92
2018-09-10T00:30:13.885Z,85.15
2018-09-10T00:31:13.870Z,85.15
2018-09-10T00:32:13.853Z,85.05
2018-09-10T00:33:13.835Z,85.05
2018-09-10T00:34:13.823Z,85.25
2018-09-10T00:35:13.802Z,85.05
2018-09-10T00:36:13.787Z,84.77
2018-09-10T00:37:13.769Z,86.01
2018-09-10T00:38:13.752Z,85.44
2018-09-10T00:39:13.735Z,85.53
2018-09-10T00:40:13.718Z,85.44
2018-09-10T00:41:13.703Z,85.34
2018-09-10T00:42:13.688Z,84.86
2018-09-10T00:43:13.691Z,85.82
2018-09-10T00:44:13.653Z,86.01
2018-09-10T00:45:13.636Z,86.30
2018-09-10T00:46:13.619Z,86.30
2018-09-10T00:47:13.602Z,86.11
2018-09-10T00:48:13.585Z,86.21
2018-09-10T00:49:13.570Z,86.01
2018-09-10T00:50:13.552Z,86.21
2018-09-10T00:51:13.535Z,86.11
2018-09-10T00:52:13.518Z,86.01
2018-09-10T00:53:13.501Z,86.11
2018-09-10T00:54:13.485Z,86.21
2018-09-10T00:55:13.471Z,86.30
2018-09-10T00:56:13.452Z,86.11
2018-09-10T00:57:13.434Z,86.30
2018-09-10T00:58:13.417Z,86.68
2018-09-10T00:59:13.402Z,86.78
2018-09-10T01:00:13.385Z,86.78
2018-09-10T01:01:13.368Z,86.88
2018-09-10T01:02:13.351Z,86.58
2018-09-10T01:03:13.335Z,86.68
2018-09-10T01:04:13.318Z,87.07
2018-09-10T01:05:13.301Z,86.97
2018-09-10T01:06:13.283Z,86.30
2018-09-10T01:07:13.267Z,86.40
2018-09-10T01:08:13.252Z,86.11
2018-09-10T01:09:13.236Z,86.11
2018-09-10T01:10:13.216Z,87.07
2018-09-10T01:11:13.202Z,87.07
2018-09-10T01:12:13.184Z,86.88
2018-09-10T01:13:13.166Z,86.88
2018-09-10T01:14:13.148Z,86.58
2018-09-10T01:15:13.140Z,86.78
2018-09-10T01:16:13.127Z,86.78
2018-09-10T01:17:13.100Z,86.78
2018-09-10T01:18:13.083Z,86.88
2018-09-10T01:19:13.065Z,86.78
2018-09-10T01:20:13.050Z,86.78
2018-09-10T01:21:13.032Z,87.07
2018-09-10T01:22:13.015Z,86.78
2018-09-10T01:23:12.998Z,87.16
2018-09-10T01:24:12.983Z,86.68
2018-09-10T01:25:12.964Z,86.78
2018-09-10T01:26:12.947Z,86.40
2018-09-10T01:27:12.930Z,86.58
2018-09-10T01:28:12.914Z,86.97
2018-09-10T01:29:12.898Z,86.49
2018-09-10T01:30:12.881Z,87.07
2018-09-10T01:31:12.871Z,86.58
2018-09-10T01:32:12.847Z,86.78
2018-09-10T01:33:12.832Z,86.30
2018-09-10T01:34:12.812Z,86.11
2018-09-10T01:35:12.797Z,86.30
2018-09-10T01:36:12.781Z,87.16
2018-09-10T01:37:12.765Z,86.78
2018-09-10T01:38:12.750Z,86.78
2018-09-10T01:39:12.729Z,87.16
2018-09-10T01:40:12.712Z,86.88
2018-09-10T01:41:12.700Z,86.40
2018-09-10T01:42:12.678Z,86.11
2018-09-10T01:43:12.663Z,86.49
2018-09-10T01:44:12.646Z,86.11
2018-09-10T01:45:12.628Z,86.88
2018-09-10T01:46:12.611Z,86.88
2018-09-10T01:47:12.595Z,86.97
2018-09-10T01:48:12.578Z,86.40
2018-09-10T01:49:12.561Z,86.68
2018-09-10T01:50:12.544Z,86.21
2018-09-10T01:51:12.529Z,85.92
2018-09-10T01:52:12.513Z,86.11
2018-09-10T01:53:12.494Z,86.21
2018-09-10T01:54:12.477Z,86.30
2018-09-10T01:55:12.460Z,86.11
2018-09-10T01:56:12.442Z,85.72
2018-09-10T01:57:12.426Z,85.53
2018-09-10T01:58:12.415Z,85.63
2018-09-10T01:59:12.392Z,85.05
2018-09-10T02:00:12.375Z,85.25
2018-09-10T02:01:12.358Z,85.15
2018-09-10T02:02:12.341Z,84.95
2018-09-10T02:03:12.323Z,86.11
2018-09-10T02:04:12.310Z,85.72
2018-09-10T02:05:12.290Z,85.63
2018-09-10T02:06:12.274Z,86.01
2018-09-10T02:07:12.257Z,85.34
2018-09-10T02:08:12.240Z,85.34
2018-09-10T02:09:12.224Z,85.53
2018-09-10T02:10:12.206Z,86.11
2018-09-10T02:11:12.193Z,85.92
2018-09-10T02:12:12.175Z,86.01
2018-09-10T02:13:12.156Z,86.21
2018-09-10T02:14:12.139Z,86.40
2018-09-10T02:15:12.123Z,86.40
2018-09-10T02:16:12.107Z,86.01
2018-09-10T02:17:12.147Z,86.30
2018-09-10T02:18:12.071Z,86.11
2018-09-10T02:19:12.054Z,86.88
2018-09-10T02:20:12.052Z,86.40
2018-09-10T02:21:12.021Z,86.40
2018-09-10T02:22:12.003Z,86.21
2018-09-10T02:23:11.987Z,86.01
2018-09-10T02:24:11.970Z,86.21
2018-09-10T02:25:11.954Z,85.92
2018-09-10T02:26:11.937Z,85.72
2018-09-10T02:27:11.926Z,84.95
2018-09-10T02:28:11.902Z,85.15
2018-09-10T02:29:11.949Z,85.92
2018-09-10T02:30:11.869Z,85.44
2018-09-10T02:31:11.852Z,85.34
2018-09-10T02:32:11.838Z,84.95
2018-09-10T02:33:11.820Z,85.25
2018-09-10T02:34:11.801Z,84.86
2018-09-10T02:35:11.784Z,85.34
2018-09-10T02:36:11.768Z,85.44
2018-09-10T02:37:11.750Z,85.05
2018-09-10T02:38:11.733Z,84.95
2018-09-10T02:39:11.717Z,85.15
2018-09-10T02:40:11.700Z,85.25
2018-09-10T02:41:11.688Z,84.77
2018-09-10T02:42:11.667Z,85.15
2018-09-10T02:43:11.649Z,85.15
2018-09-10T02:44:11.633Z,84.95
2018-09-10T02:45:11.616Z,84.95
2018-09-10T02:46:11.600Z,85.15
2018-09-10T02:47:11.581Z,85.63
2018-09-10T02:48:11.563Z,85.72
2018-09-10T02:49:11.548Z,85.05
2018-09-10T02:50:11.530Z,85.44
2018-09-10T02:51:11.514Z,84.95
2018-09-10T02:52:11.497Z,84.86
2018-09-10T02:53:11.482Z,84.95
2018-09-10T02:54:11.465Z,85.05
2018-09-10T02:55:11.581Z,85.15
2018-09-10T02:56:11.431Z,85.25
2018-09-10T02:57:11.413Z,85.15
2018-09-10T02:58:11.397Z,86.11
2018-09-10T02:59:11.382Z,85.44
2018-09-10T03:00:11.362Z,85.53
2018-09-10T03:01:11.345Z,86.40
2018-09-10T03:02:11.326Z,86.40
2018-09-10T03:03:11.311Z,86.01
2018-09-10T03:04:11.296Z,86.01
2018-09-10T03:05:11.282Z,86.30
2018-09-10T03:06:11.258Z,86.68
2018-09-10T03:07:11.244Z,86.30
2018-09-10T03:08:11.227Z,85.82
2018-09-10T03:09:11.235Z,85.82
2018-09-10T03:10:11.214Z,86.30
2018-09-10T03:11:11.177Z,86.21
2018-09-10T03:12:11.160Z,86.40
2018-09-10T03:13:11.142Z,86.01
2018-09-10T03:14:11.125Z,86.49
2018-09-10T03:15:11.107Z,86.49
2018-09-10T03:16:11.092Z,86.16
2018-09-10T03:17:11.074Z,86.78
2018-09-10T03:18:11.056Z,86.49
2018-09-10T03:19:11.041Z,86.49
2018-09-10T03:20:11.026Z,86.11
2018-09-10T03:21:11.006Z,85.92
2018-09-10T03:22:10.989Z,85.92
2018-09-10T03:23:10.971Z,86.40
2018-09-10T03:24:11.015Z,86.21
2018-09-10T03:25:10.943Z,86.40
2018-09-10T03:26:10.922Z,86.30
2018-09-10T03:27:10.925Z,86.21
2018-09-10T03:28:10.886Z,86.21
2018-09-10T03:29:10.870Z,86.01
2018-09-10T03:30:10.853Z,86.01
2018-09-10T03:31:10.834Z,86.30
2018-09-10T03:32:10.819Z,86.49
2018-09-10T03:33:10.801Z,86.40
2018-09-10T03:34:10.785Z,86.78
2018-09-10T03:35:10.773Z,86.88
2018-09-10T03:36:10.751Z,86.97
2018-09-10T03:37:10.737Z,86.78
2018-09-10T03:38:10.717Z,87.07
2018-09-10T03:39:10.699Z,86.88
2018-09-10T03:40:10.687Z,86.88
2018-09-10T03:41:10.666Z,87.16
2018-09-10T03:42:10.649Z,86.88
2018-09-10T03:43:10.631Z,86.78
2018-09-10T03:44:10.614Z,86.88
2018-09-10T03:45:10.599Z,86.49
2018-09-10T03:46:10.580Z,86.11
2018-09-10T03:47:10.603Z,86.40
2018-09-10T03:48:10.547Z,86.78
2018-09-10T03:49:10.530Z,86.49
2018-09-10T03:50:10.517Z,87.07
2018-09-10T03:51:10.499Z,86.11
2018-09-10T03:52:10.479Z,86.97
2018-09-10T03:53:10.463Z,86.88
2018-09-10T03:54:10.445Z,86.97
2018-09-10T03:55:10.428Z,86.21
2018-09-10T03:56:10.411Z,86.30
2018-09-10T03:57:10.395Z,86.30
2018-09-10T03:58:10.377Z,86.21
2018-09-10T03:59:10.362Z,86.11
2018-09-10T04:00:10.345Z,86.01
2018-09-10T04:01:10.490Z,86.30
2018-09-10T04:02:10.311Z,86.30
2018-09-10T04:03:10.292Z,85.92
2018-09-10T04:04:10.277Z,85.92
2018-09-10T04:05:10.259Z,85.72
2018-09-10T04:06:10.241Z,86.01
2018-09-10T04:07:10.228Z,86.01
2018-09-10T04:08:10.208Z,85.53
2018-09-10T04:09:10.191Z,85.53
2018-09-10T04:10:10.208Z,85.72
2018-09-10T04:11:10.156Z,86.01
2018-09-10T04:12:10.140Z,85.72
2018-09-10T04:13:10.122Z,85.92
2018-09-10T04:14:10.105Z,85.53
2018-09-10T04:15:10.089Z,85.82
2018-09-10T04:16:10.070Z,85.92
2018-09-10T04:17:10.109Z,86.25
2018-09-10T04:18:10.039Z,85.82
2018-09-10T04:19:10.020Z,85.72
2018-09-10T04:20:10.004Z,86.40
2018-09-10T04:21:09.986Z,86.40
2018-09-10T04:22:09.969Z,86.40
2018-09-10T04:23:09.951Z,86.34
2018-09-10T04:24:09.934Z,86.34
2018-09-10T04:25:09.918Z,86.21
2018-09-10T04:26:09.987Z,86.40
2018-09-10T04:27:09.884Z,86.49
2018-09-10T04:28:09.868Z,86.30
2018-09-10T04:29:09.849Z,86.21
2018-09-10T04:30:09.842Z,86.68
2018-09-10T04:31:09.816Z,86.30
2018-09-10T04:32:09.799Z,87.16
2018-09-10T04:33:09.784Z,87.21
2018-09-10T04:34:09.766Z,86.88
2018-09-10T04:35:09.749Z,86.88
2018-09-10T04:36:09.781Z,86.92
2018-09-10T04:37:09.717Z,86.54
2018-09-10T04:38:09.698Z,86.97
2018-09-10T04:39:09.681Z,86.88
2018-09-10T04:40:09.666Z,86.88
2018-09-10T04:41:09.647Z,86.68
2018-09-10T04:42:09.673Z,86.88
2018-09-10T04:43:09.613Z,87.26
2018-09-10T04:44:09.596Z,86.68
2018-09-10T04:45:09.580Z,87.07
2018-09-10T04:46:09.563Z,86.88
2018-09-10T04:47:09.547Z,86.88
2018-09-10T04:48:09.531Z,86.88
2018-09-10T04:49:09.520Z,86.97
2018-09-10T04:50:09.495Z,86.88
2018-09-10T04:51:09.476Z,87.07
2018-09-10T04:52:09.458Z,87.55
2018-09-10T04:53:09.445Z,87.59
2018-09-10T04:54:09.426Z,86.97
2018-09-10T04:55:09.411Z,87.26
2018-09-10T04:56:09.391Z,86.97
2018-09-10T04:57:09.374Z,87.07
2018-09-10T04:58:09.427Z,86.78
2018-09-10T04:59:09.341Z,87.11
2018-09-10T05:00:09.324Z,87.35
2018-09-10T05:01:09.308Z,87.26
2018-09-10T05:02:09.288Z,87.07
2018-09-10T05:03:09.275Z,87.45
2018-09-10T05:04:09.256Z,87.26
2018-09-10T05:05:09.239Z,87.45
2018-09-10T05:06:09.223Z,87.07
2018-09-10T05:07:09.204Z,87.35
2018-09-10T05:08:09.186Z,86.97
2018-09-10T05:09:09.170Z,87.45
2018-09-10T05:10:09.152Z,87.26
2018-09-10T05:11:09.137Z,87.45
2018-09-10T05:12:09.120Z,87.07
2018-09-10T05:13:09.105Z,87.07
2018-09-10T05:14:09.083Z,86.97
2018-09-10T05:15:09.067Z,87.40
2018-09-10T05:16:09.051Z,87.26
2018-09-10T05:17:09.034Z,87.98
2018-09-10T05:18:09.015Z,87.64
2018-09-10T05:19:08.998Z,87.84
2018-09-10T05:20:08.990Z,87.84
2018-09-10T05:21:08.968Z,87.64
2018-09-10T05:22:09.001Z,87.55
2018-09-10T05:23:08.930Z,87.84
2018-09-10T05:24:08.915Z,87.45
2018-09-10T05:25:08.897Z,87.59
2018-09-10T05:26:08.880Z,88.12
2018-09-10T05:27:08.862Z,88.41
2018-09-10T05:28:08.881Z,88.02
2018-09-10T05:29:08.829Z,88.41
2018-09-10T05:30:08.809Z,88.02
2018-09-10T05:31:08.794Z,88.02
2018-09-10T05:32:08.776Z,87.93
2018-09-10T05:33:08.758Z,87.93
2018-09-10T05:34:08.741Z,88.89
2018-09-10T05:35:08.726Z,88.98
2018-09-10T05:36:08.709Z,88.31
2018-09-10T05:37:08.692Z,88.70
2018-09-10T05:38:08.679Z,88.79
2018-09-10T05:39:08.657Z,88.70
2018-09-10T05:40:08.639Z,88.60
2018-09-10T05:41:08.623Z,88.70
2018-09-10T05:42:08.606Z,88.60
2018-09-10T05:43:08.589Z,88.89
2018-09-10T05:44:08.571Z,88.89
2018-09-10T05:45:08.554Z,89.22
2018-09-10T05:46:08.536Z,88.51
2018-09-10T05:47:08.518Z,88.65
2018-09-10T05:48:08.501Z,88.84
2018-09-10T05:49:08.505Z,88.70
2018-09-10T05:50:08.471Z,88.79
2018-09-10T05:51:08.452Z,88.65
2018-09-10T05:52:08.435Z,88.79
2018-09-10T05:53:08.426Z,88.60
2018-09-10T05:54:08.401Z,88.55
2018-09-10T05:55:08.383Z,88.70
2018-09-10T05:56:08.366Z,88.65
2018-09-10T05:57:08.349Z,88.45
2018-09-10T05:58:08.332Z,89.27
2018-09-10T05:59:08.315Z,89.12
2018-09-10T06:00:08.298Z,88.84
2018-09-10T06:01:08.281Z,88.84
2018-09-10T06:02:08.263Z,89.22
2018-09-10T06:03:08.248Z,88.93
2018-09-10T06:04:08.230Z,89.41
2018-09-10T06:05:08.218Z,89.51
2018-09-10T06:06:08.195Z,89.61
2018-09-10T06:07:08.177Z,89.51
2018-09-10T06:08:08.161Z,89.79
2018-09-10T06:09:08.143Z,89.51
2018-09-10T06:10:08.127Z,89.70
2018-09-10T06:11:08.110Z,90.08
2018-09-10T06:12:08.094Z,89.89
2018-09-10T06:13:08.076Z,89.79
2018-09-10T06:14:08.057Z,89.89
2018-09-10T06:15:08.044Z,89.70
2018-09-10T06:16:08.024Z,89.89
2018-09-10T06:17:08.006Z,90.37
2018-09-10T06:18:07.990Z,90.56
2018-09-10T06:19:07.971Z,90.37
2018-09-10T06:20:07.955Z,90.28
2018-09-10T06:21:07.940Z,89.79
2018-09-10T06:22:07.922Z,89.70
2018-09-10T06:23:07.908Z,90.28
2018-09-10T06:24:07.886Z,89.70
2018-09-10T06:25:07.876Z,90.85
2018-09-10T06:26:07.853Z,90.56
2018-09-10T06:27:07.836Z,90.47
2018-09-10T06:28:07.819Z,90.47
2018-09-10T06:29:07.803Z,90.95
2018-09-10T06:30:07.791Z,90.56
2018-09-10T06:31:07.769Z,90.47
2018-09-10T06:32:07.751Z,89.89
2018-09-10T06:33:07.734Z,90.85
2018-09-10T06:34:07.746Z,90.66
2018-09-10T06:35:07.698Z,90.75
2018-09-10T06:36:07.681Z,90.56
2018-09-10T06:37:07.693Z,90.47
2018-09-10T06:38:07.647Z,90.56
2018-09-10T06:39:07.631Z,90.47
2018-09-10T06:40:07.618Z,90.47
2018-09-10T06:41:07.597Z,90.66
2018-09-10T06:42:07.580Z,90.56
2018-09-10T06:43:07.589Z,90.75
2018-09-10T06:44:07.546Z,91.33
2018-09-10T06:45:07.530Z,91.05
2018-09-10T06:46:07.512Z,90.75
2018-09-10T06:47:07.494Z,91.14
2018-09-10T06:48:07.477Z,91.81
2018-09-10T06:49:07.461Z,91.62
2018-09-10T06:50:07.442Z,91.42
2018-09-10T06:51:07.425Z,91.05
2018-09-10T06:52:07.409Z,91.81
2018-09-10T06:53:07.392Z,91.81
2018-09-10T06:54:07.385Z,91.33
2018-09-10T06:55:07.360Z,91.72
2018-09-10T06:56:07.343Z,91.62
2018-09-10T06:57:07.329Z,92.00
2018-09-10T06:58:07.306Z,91.91
2018-09-10T06:59:07.288Z,91.81
2018-09-10T07:00:07.312Z,91.81
2018-09-10T07:01:07.260Z,92.29
2018-09-10T07:02:07.238Z,92.39
2018-09-10T07:03:07.222Z,92.58
2018-09-10T07:04:07.217Z,92.19
2018-09-10T07:05:07.187Z,92.86
2018-09-10T07:06:07.170Z,92.77
2018-09-10T07:07:07.154Z,92.58
2018-09-10T07:08:07.136Z,92.96
2018-09-10T07:09:07.121Z,93.20
2018-09-10T07:10:07.103Z,93.10
2018-09-10T07:11:07.085Z,93.10
2018-09-10T07:12:07.069Z,93.30
2018-09-10T07:13:07.125Z,93.01
2018-09-10T07:14:07.034Z,93.01
2018-09-10T07:15:07.016Z,93.01
2018-09-10T07:16:07.000Z,93.39
2018-09-10T07:17:06.985Z,93.39
2018-09-10T07:18:06.966Z,93.39
2018-09-10T07:19:07.038Z,93.87
2018-09-10T07:20:06.932Z,94.07
2018-09-10T07:21:06.915Z,93.97
2018-09-10T07:22:06.898Z,94.07
2018-09-10T07:23:06.883Z,94.07
2018-09-10T07:24:06.865Z,94.35
2018-09-10T07:25:06.847Z,94.45
2018-09-10T07:26:06.831Z,94.16
2018-09-10T07:27:06.818Z,94.54
2018-09-10T07:28:06.796Z,94.07
2018-09-10T07:29:06.782Z,94.26
2018-09-10T07:30:06.763Z,94.21
2018-09-10T07:31:06.747Z,94.49
2018-09-10T07:32:06.734Z,94.88
2018-09-10T07:33:06.712Z,94.45
2018-09-10T07:34:06.697Z,94.98
2018-09-10T07:35:06.680Z,95.26
2018-09-10T07:36:06.666Z,94.98
2018-09-10T07:37:06.648Z,95.36
2018-09-10T07:38:06.630Z,95.45
2018-09-10T07:39:06.613Z,95.36
2018-09-10T07:40:06.595Z,95.36
2018-09-10T07:41:06.580Z,95.84
2018-09-10T07:42:06.563Z,96.13
2018-09-10T07:43:06.560Z,96.32
2018-09-10T07:44:06.570Z,96.70
2018-09-10T07:45:06.513Z,96.80
2018-09-10T07:46:06.495Z,96.42
2018-09-10T07:47:06.479Z,96.51
2018-09-10T07:48:06.462Z,96.32
2018-09-10T07:49:06.446Z,96.51
2018-09-10T07:50:06.430Z,96.42
2018-09-10T07:51:06.411Z,96.42
2018-09-10T07:52:06.395Z,96.51
2018-09-10T07:53:06.380Z,96.89
2018-09-10T07:54:06.363Z,96.70
2018-09-10T07:55:06.345Z,96.61
2018-09-10T07:56:06.328Z,96.61
2018-09-10T07:57:06.312Z,96.32
2018-09-10T07:58:06.295Z,96.70
2018-09-10T07:59:06.277Z,96.70
2018-09-10T08:00:06.262Z,96.61
2018-09-10T08:01:06.246Z,96.13
2018-09-10T08:02:06.227Z,96.70
2018-09-10T08:03:06.276Z,96.80
2018-09-10T08:04:06.194Z,97.28
2018-09-10T08:05:06.178Z,97.09
2018-09-10T08:06:06.161Z,97.28
2018-09-10T08:07:06.147Z,97.66
2018-09-10T08:08:06.128Z,97.86
2018-09-10T08:09:06.134Z,98.24
2018-09-10T08:10:06.094Z,97.96
2018-09-10T08:11:06.078Z,98.14
2018-09-10T08:12:06.066Z,98.05
2018-09-10T08:13:06.046Z,97.86
2018-09-10T08:14:06.028Z,97.76
2018-09-10T08:15:06.012Z,98.24
2018-09-10T08:16:05.996Z,98.05
2018-09-10T08:17:05.980Z,98.34
2018-09-10T08:18:05.962Z,98.43
2018-09-10T08:19:05.946Z,98.34
2018-09-10T08:20:05.937Z,98.34
2018-09-10T08:21:05.913Z,98.53
2018-09-10T08:22:05.896Z,98.72
2018-09-10T08:23:05.880Z,98.72
2018-09-10T08:24:05.933Z,98.82
2018-09-10T08:25:05.890Z,99.20
2018-09-10T08:26:05.829Z,98.82
2018-09-10T08:27:05.815Z,99.01
2018-09-10T08:28:05.796Z,99.68
2018-09-10T08:29:05.781Z,99.58
2018-09-10T08:30:05.763Z,99.68
2018-09-10T08:31:05.749Z,99.58
2018-09-10T08:32:05.731Z,99.68
2018-09-10T08:33:05.714Z,99.68
2018-09-10T08:34:05.699Z,99.49
2018-09-10T08:35:05.697Z,99.68
2018-09-10T08:36:05.665Z,99.87
2018-09-10T08:37:05.649Z,99.99
2018-09-10T08:38:05.636Z,99.97
2018-09-10T08:39:05.615Z,99.99
2018-09-10T08:40:05.597Z,99.49
2018-09-10T08:41:05.588Z,99.99
2018-09-10T08:42:05.566Z,99.99
2018-09-10T08:43:05.549Z,99.99
2018-09-10T08:44:05.532Z,99.92
2018-09-10T08:45:05.538Z,99.99
2018-09-10T08:46:05.499Z,99.35
2018-09-10T08:47:05.484Z,99.54
2018-09-10T08:48:05.469Z,99.54
2018-09-10T08:49:05.451Z,99.63
2018-09-10T08:50:05.433Z,99.99
2018-09-10T08:51:05.417Z,99.99
2018-09-10T08:52:05.404Z,99.73
2018-09-10T08:53:05.383Z,99.35
2018-09-10T08:54:05.449Z,99.73
2018-09-10T08:55:05.592Z,99.99
2018-09-10T08:56:05.621Z,99.25
2018-09-10T08:57:05.327Z,99.99
2018-09-10T08:58:05.303Z,99.99
2018-09-10T08:59:05.287Z,99.99
2018-09-10T09:00:05.294Z,99.99
2018-09-10T09:01:05.253Z,99.99
2018-09-10T09:02:05.238Z,99.92
2018-09-10T09:03:05.219Z,99.83
2018-09-10T09:04:05.203Z,99.54
2018-09-10T09:05:05.187Z,99.44
2018-09-10T09:06:05.263Z,99.73
2018-09-10T09:07:05.154Z,99.44
2018-09-10T09:08:05.191Z,99.73
2018-09-10T09:09:05.123Z,99.63
2018-09-10T09:10:05.103Z,99.73
2018-09-10T09:11:05.089Z,99.92
2018-09-10T09:12:05.071Z,99.63
2018-09-10T09:13:05.055Z,99.83
2018-09-10T09:14:05.038Z,99.78
2018-09-10T09:15:05.026Z,99.73
2018-09-10T09:16:05.007Z,99.30
2018-09-10T09:17:04.990Z,99.92
2018-09-10T09:18:04.974Z,99.78
2018-09-10T09:19:04.956Z,98.91
2018-09-10T09:20:04.941Z,99.01
2018-09-10T09:21:04.925Z,99.01
2018-09-10T09:22:04.911Z,98.63
2018-09-10T09:23:04.896Z,98.91
2018-09-10T09:24:04.875Z,99.21
2018-09-10T09:25:04.859Z,98.05
2018-09-10T09:26:04.842Z,97.96
2018-09-10T09:27:04.827Z,97.47
2018-09-10T09:28:04.810Z,97.57
2018-09-10T09:29:04.795Z,97.76
2018-09-10T09:30:04.799Z,98.05
2018-09-10T09:31:04.762Z,98.34
2018-09-10T09:32:04.747Z,97.76
2018-09-10T09:33:04.731Z,97.42
2018-09-10T09:34:04.716Z,97.67
2018-09-10T09:35:04.699Z,97.47
2018-09-10T09:36:04.736Z,96.80
2018-09-10T09:37:04.666Z,96.32
2018-09-10T09:38:04.650Z,96.22
2018-09-10T09:39:04.638Z,96.32
2018-09-10T09:40:04.617Z,96.47
2018-09-10T09:41:04.602Z,96.75
2018-09-10T09:42:04.584Z,96.85
2018-09-10T09:43:04.573Z,96.94
2018-09-10T09:44:04.554Z,96.75
2018-09-10T09:45:04.539Z,96.66
2018-09-10T09:46:04.520Z,97.81
2018-09-10T09:47:04.514Z,97.62
2018-09-10T09:48:04.519Z,96.66
2018-09-10T09:49:04.474Z,97.71
2018-09-10T09:50:04.456Z,96.27
2018-09-10T09:51:04.494Z,95.50
2018-09-10T09:52:04.430Z,95.70
2018-09-10T09:53:04.410Z,95.89
2018-09-10T09:54:04.401Z,95.70
2018-09-10T09:55:04.376Z,96.47
2018-09-10T09:56:04.360Z,96.08
2018-09-10T09:57:04.345Z,95.50
2018-09-10T09:58:04.327Z,95.89
2018-09-10T09:59:04.313Z,96.17
2018-09-10T10:00:04.296Z,96.17
2018-09-10T10:01:04.281Z,96.17
2018-09-10T10:02:04.267Z,96.47
2018-09-10T10:03:04.249Z,95.98
2018-09-10T10:04:04.237Z,95.89
2018-09-10T10:05:04.217Z,95.60
2018-09-10T10:06:04.202Z,96.08
2018-09-10T10:07:04.184Z,96.47
2018-09-10T10:08:04.171Z,95.60
2018-09-10T10:09:04.153Z,95.31
2018-09-10T10:10:04.142Z,94.92
2018-09-10T10:11:04.156Z,94.06
2018-09-10T10:12:04.160Z,94.92
2018-09-10T10:13:04.089Z,95.21
2018-09-10T10:14:04.073Z,95.31
2018-09-10T10:15:04.058Z,95.50
2018-09-10T10:16:04.041Z,95.60
2018-09-10T10:17:04.026Z,95.02
2018-09-10T10:18:04.020Z,94.15
2018-09-10T10:19:03.994Z,94.73
2018-09-10T10:20:03.983Z,95.31
2018-09-10T10:21:03.963Z,94.92
2018-09-10T10:22:04.026Z,95.89
2018-09-10T10:23:03.932Z,95.31
2018-09-10T10:24:03.915Z,93.96
2018-09-10T10:25:03.899Z,93.68
2018-09-10T10:26:03.883Z,94.25
2018-09-10T10:27:03.866Z,95.02
2018-09-10T10:28:03.867Z,95.40
2018-09-10T10:29:03.839Z,94.25
2018-09-10T10:30:03.822Z,94.54
2018-09-10T10:31:03.805Z,93.77
2018-09-10T10:32:03.788Z,93.68
2018-09-10T10:33:03.772Z,93.19
2018-09-10T10:34:03.757Z,93.38
2018-09-10T10:35:03.741Z,94.35
2018-09-10T10:36:03.723Z,93.38
2018-09-10T10:37:03.711Z,93.68
2018-09-10T10:38:03.693Z,93.68
2018-09-10T10:39:03.732Z,93.58
2018-09-10T10:40:03.662Z,93.00
2018-09-10T10:41:03.645Z,92.91
2018-09-10T10:42:03.627Z,92.52
2018-09-10T10:43:03.613Z,92.91
2018-09-10T10:44:03.608Z,93.10
2018-09-10T10:45:03.580Z,93.58
2018-09-10T10:46:03.565Z,92.61
2018-09-10T10:47:03.548Z,92.43
2018-09-10T10:48:03.533Z,92.91
2018-09-10T10:49:03.520Z,93.10
2018-09-10T10:50:03.499Z,93.58
2018-09-10T10:51:03.487Z,93.38
2018-09-10T10:52:03.501Z,93.68
2018-09-10T10:53:03.452Z,92.91
2018-09-10T10:54:03.435Z,93.00
2018-09-10T10:55:03.432Z,93.48
2018-09-10T10:56:03.404Z,93.58
2018-09-10T10:57:03.390Z,93.48
2018-09-10T10:58:03.375Z,93.68
2018-09-10T10:59:03.357Z,93.38
2018-09-10T11:00:03.340Z,93.58
2018-09-10T11:01:03.328Z,93.68
2018-09-10T11:02:03.309Z,93.48
2018-09-10T11:03:03.297Z,93.58
2018-09-10T11:04:03.283Z,93.48
2018-09-10T11:05:03.262Z,93.68
2018-09-10T11:06:03.247Z,92.91
2018-09-10T11:07:03.234Z,93.58
2018-09-10T11:08:03.213Z,93.58
2018-09-10T11:09:03.198Z,92.91
2018-09-10T11:10:03.179Z,92.71
2018-09-10T11:11:03.166Z,92.66
2018-09-10T11:12:03.149Z,92.95
2018-09-10T11:13:03.134Z,92.76
2018-09-10T11:14:03.118Z,92.28
2018-09-10T11:15:03.105Z,91.99
2018-09-10T11:16:03.087Z,91.80
2018-09-10T11:17:03.069Z,91.70
2018-09-10T11:18:03.055Z,92.08
2018-09-10T11:19:03.050Z,90.88
2018-09-10T11:20:03.025Z,90.97
2018-09-10T11:21:03.007Z,89.82
2018-09-10T11:22:02.990Z,90.01
2018-09-10T11:23:02.975Z,89.82
2018-09-10T11:24:02.960Z,90.01
2018-09-10T11:25:02.948Z,89.87
2018-09-10T11:26:02.928Z,89.97
2018-09-10T11:27:02.913Z,89.49
2018-09-10T11:28:02.898Z,90.35
2018-09-10T11:29:02.883Z,90.55
2018-09-10T11:30:02.865Z,90.16
2018-09-10T11:31:02.851Z,90.35
2018-09-10T11:32:02.836Z,89.10
2018-09-10T11:33:02.821Z,88.71
2018-09-10T11:34:02.804Z,88.81
2018-09-10T11:35:02.787Z,89.29
2018-09-10T11:36:02.773Z,89.68
2018-09-10T11:37:02.760Z,89.68
2018-09-10T11:38:02.744Z,89.87
2018-09-10T11:39:02.725Z,89.78
2018-09-10T11:40:02.711Z,89.58
2018-09-10T11:41:02.697Z,89.78
2018-09-10T11:42:02.676Z,89.29
2018-09-10T11:43:02.663Z,89.68
2018-09-10T11:44:02.647Z,89.78
2018-09-10T11:45:02.631Z,90.45
2018-09-10T11:46:02.617Z,89.68
2018-09-10T11:47:02.600Z,89.39
2018-09-10T11:48:02.585Z,88.71
2018-09-10T11:49:02.570Z,88.53
2018-09-10T11:50:02.552Z,88.04
2018-09-10T11:51:02.538Z,87.85
2018-09-10T11:52:02.521Z,87.56
2018-09-10T11:53:02.506Z,87.85
2018-09-10T11:54:02.489Z,87.85
2018-09-10T11:55:02.474Z,87.66
2018-09-10T11:56:02.497Z,88.24
2018-09-10T11:57:02.477Z,88.33
2018-09-10T11:58:02.426Z,88.24
2018-09-10T11:59:02.411Z,88.28
2018-09-10T12:00:02.397Z,87.99
2018-09-10T12:01:02.384Z,87.60
2018-09-10T12:02:02.416Z,87.99
2018-09-10T12:03:02.348Z,87.90
2018-09-10T12:04:02.334Z,87.90
2018-09-10T12:05:02.320Z,88.38
2018-09-10T12:06:02.304Z,88.67
2018-09-10T12:07:02.285Z,88.28
2018-09-10T12:08:02.270Z,88.67
2018-09-10T12:09:02.255Z,87.90
2018-09-10T12:10:02.239Z,86.60
2018-09-10T12:11:02.223Z,86.12
2018-09-10T12:12:02.208Z,85.64
2018-09-10T12:13:02.193Z,86.02
2018-09-10T12:14:02.177Z,86.02
2018-09-10T12:15:02.163Z,86.60
2018-09-10T12:16:02.149Z,86.41
2018-09-10T12:17:02.132Z,86.41
2018-09-10T12:18:02.114Z,87.08
2018-09-10T12:19:02.099Z,86.02
2018-09-10T12:20:02.082Z,86.12
2018-09-10T12:21:02.069Z,86.60
2018-09-10T12:22:02.051Z,85.68
2018-09-10T12:23:02.037Z,85.54
2018-09-10T12:24:02.020Z,86.22
2018-09-10T12:25:02.006Z,86.02
2018-09-10T12:26:01.991Z,85.97
2018-09-10T12:27:01.973Z,85.74
2018-09-10T12:28:01.960Z,85.49
2018-09-10T12:29:01.945Z,86.02
2018-09-10T12:30:01.926Z,86.16
2018-09-10T12:31:01.917Z,86.99
2018-09-10T12:32:01.896Z,86.51
2018-09-10T12:33:01.878Z,86.60
2018-09-10T12:34:01.863Z,86.22
2018-09-10T12:35:01.848Z,86.12
2018-09-10T12:36:01.831Z,86.02
2018-09-10T12:37:01.820Z,85.87
2018-09-10T12:38:01.800Z,85.97
2018-09-10T12:39:01.783Z,85.87
2018-09-10T12:40:01.775Z,86.07
2018-09-10T12:41:01.756Z,85.78
2018-09-10T12:42:01.736Z,85.68
2018-09-10T12:43:01.721Z,86.07
2018-09-10T12:44:01.708Z,86.16
2018-09-10T12:45:01.694Z,85.58
2018-09-10T12:46:01.674Z,85.87
2018-09-10T12:47:01.658Z,85.49
2018-09-10T12:48:01.646Z,85.97
2018-09-10T12:49:01.628Z,85.72
2018-09-10T12:50:01.615Z,85.49
2018-09-10T12:51:01.596Z,85.68
2018-09-10T12:52:01.583Z,85.49